Time,TemperatureF,DewpointF,PressureIn,WindDirection,WindDirectionDegrees,WindSpeedMPH,WindSpeedGustMPH,Humidity,HourlyPrecipIn,Conditions,Clouds,dailyrainin,SoftwareType,DateUTC
2013-02-02 00:00:00,33.6,17.9,30.37,NNE,23,12.0,14.0,52,0.00,,---,0.00,VWS V14.01,2013-02-02 05:00:00,
2013-02-02 00:01:00,33.7,18.8,30.38,NNE,29,12.0,14.0,54,0.00,,---,0.00,VWS V14.01,2013-02-02 05:01:00,
2013-02-02 00:06:00,33.7,19.3,30.37,NE,34,10.0,15.0,55,0.00,,---,0.00,VWS V14.01,2013-02-02 05:06:00,
2013-02-02 00:11:00,33.8,18.9,30.37,NNE,32,12.0,15.0,54,0.00,,---,0.00,VWS V14.01,2013-02-02 05:11:00,
2013-02-02 00:16:00,33.9,18.1,30.37,NE,36,13.0,15.0,52,0.00,,---,0.00,VWS V14.01,2013-02-02 05:16:00,
2013-02-02 00:21:00,33.8,19.8,30.37,NE,46,12.0,15.0,56,0.00,,---,0.00,VWS V14.01,2013-02-02 05:21:00,
2013-02-02 00:26:00,33.8,18.0,30.37,NE,44,14.0,15.0,52,0.00,,---,0.00,VWS V14.01,2013-02-02 05:26:00,
2013-02-02 00:31:00,33.6,18.3,30.37,NE,34,12.0,15.0,53,0.00,,---,0.00,VWS V14.01,2013-02-02 05:31:00,
2013-02-02 00:36:00,33.4,18.6,30.37,NNE,27,11.0,15.0,54,0.00,,---,0.00,VWS V14.01,2013-02-02 05:36:00,
2013-02-02 00:41:00,33.3,18.9,30.37,NNE,15,11.0,15.0,55,0.00,,---,0.00,VWS V14.01,2013-02-02 05:41:00,
2013-02-02 00:47:00,32.9,17.7,30.37,NNE,17,11.0,15.0,53,0.00,,---,0.00,VWS V14.01,2013-02-02 05:47:00,
2013-02-02 00:51:00,32.9,18.1,30.37,NE,43,8.0,15.0,54,0.00,,---,0.00,VWS V14.01,2013-02-02 05:51:00,
2013-02-02 00:56:00,32.8,17.6,30.38,ENE,62,6.0,15.0,53,0.00,,---,0.00,VWS V14.01,2013-02-02 05:56:00,
2013-02-02 01:02:00,33.0,18.2,30.38,NE,48,13.0,13.0,54,0.00,,---,0.00,VWS V14.01,2013-02-02 06:02:00,
2013-02-02 01:07:00,33.1,17.8,30.38,NE,34,9.0,13.0,53,0.00,,---,0.00,VWS V14.01,2013-02-02 06:07:00,
2013-02-02 01:12:00,33.2,18.4,30.38,NNE,19,8.0,13.0,54,0.00,,---,0.00,VWS V14.01,2013-02-02 06:12:00,
2013-02-02 01:17:00,33.0,18.2,30.38,NE,44,7.0,13.0,54,0.00,,---,0.00,VWS V14.01,2013-02-02 06:17:00,
2013-02-02 01:22:00,33.0,18.2,30.38,NE,40,7.0,13.0,54,0.00,,---,0.00,VWS V14.01,2013-02-02 06:22:00,
2013-02-02 01:27:00,33.0,17.3,30.38,NE,43,10.0,13.0,52,0.00,,---,0.00,VWS V14.01,2013-02-02 06:27:00,
2013-02-02 01:32:00,32.9,16.3,30.37,NE,43,9.0,12.0,50,0.00,,---,0.00,VWS V14.01,2013-02-02 06:32:00,
2013-02-02 01:37:00,32.6,16.5,30.38,NE,40,8.0,12.0,51,0.00,,---,0.00,VWS V14.01,2013-02-02 06:37:00,
2013-02-02 01:42:00,32.6,16.9,30.38,NE,51,11.0,12.0,52,0.00,,---,0.00,VWS V14.01,2013-02-02 06:42:00,
2013-02-02 01:47:00,32.6,16.9,30.37,NE,49,9.0,12.0,52,0.00,,---,0.00,VWS V14.01,2013-02-02 06:47:00,
2013-02-02 01:52:00,32.3,16.7,30.37,ENE,64,7.0,12.0,52,0.00,,---,0.00,VWS V14.01,2013-02-02 06:52:00,
2013-02-02 01:57:00,32.1,17.3,30.37,ENE,58,9.0,12.0,54,0.00,,---,0.00,VWS V14.01,2013-02-02 06:57:00,
2013-02-02 02:02:00,32.2,18.3,30.37,NE,48,9.0,11.0,56,0.00,,---,0.00,VWS V14.01,2013-02-02 07:02:00,
2013-02-02 02:07:00,31.9,17.6,30.37,NE,38,7.0,13.0,55,0.00,,---,0.00,VWS V14.01,2013-02-02 07:07:00,
2013-02-02 02:12:00,31.7,17.4,30.37,NE,40,10.0,13.0,55,0.00,,---,0.00,VWS V14.01,2013-02-02 07:12:00,
2013-02-02 02:17:00,31.6,18.1,30.37,NNE,26,5.0,13.0,57,0.00,,---,0.00,VWS V14.01,2013-02-02 07:17:00,
2013-02-02 02:22:00,31.5,18.8,30.38,NE,35,8.0,13.0,59,0.00,,---,0.00,VWS V14.01,2013-02-02 07:22:00,
2013-02-02 02:27:00,30.8,18.2,30.38,North,5,7.0,13.0,59,0.00,,---,0.00,VWS V14.01,2013-02-02 07:27:00,
2013-02-02 02:32:00,30.1,17.5,30.38,NNE,30,9.0,11.0,59,0.00,,---,0.00,VWS V14.01,2013-02-02 07:32:00,
2013-02-02 02:37:00,29.8,18.0,30.38,North,360,6.0,11.0,61,0.00,,---,0.00,VWS V14.01,2013-02-02 07:37:00,
2013-02-02 02:42:00,29.6,17.8,30.38,NNE,24,5.0,11.0,61,0.00,,---,0.00,VWS V14.01,2013-02-02 07:42:00,
2013-02-02 02:47:00,29.6,17.8,30.38,NNE,27,6.0,11.0,61,0.00,,---,0.00,VWS V14.01,2013-02-02 07:47:00,
2013-02-02 02:52:00,29.4,18.4,30.38,NE,39,9.0,11.0,63,0.00,,---,0.00,VWS V14.01,2013-02-02 07:52:00,
2013-02-02 02:57:00,29.4,17.6,30.38,NE,35,9.0,11.0,61,0.00,,---,0.00,VWS V14.01,2013-02-02 07:57:00,
2013-02-02 03:06:00,29.2,17.8,30.38,NNE,21,7.0,10.0,62,0.00,,---,0.00,VWS V14.01,2013-02-02 08:06:00,
2013-02-02 03:11:00,29.2,18.5,30.38,NNE,19,7.0,11.0,64,0.00,,---,0.00,VWS V14.01,2013-02-02 08:11:00,
2013-02-02 03:16:00,29.1,18.8,30.38,North,5,9.0,11.0,65,0.00,,---,0.00,VWS V14.01,2013-02-02 08:16:00,
2013-02-02 03:21:00,29.1,18.5,30.38,NNE,27,9.0,11.0,64,0.00,,---,0.00,VWS V14.01,2013-02-02 08:21:00,
2013-02-02 03:26:00,29.2,18.9,30.38,NNE,31,6.0,11.0,65,0.00,,---,0.00,VWS V14.01,2013-02-02 08:26:00,
2013-02-02 03:31:00,29.0,18.4,30.38,NNE,23,7.0,10.0,64,0.00,,---,0.00,VWS V14.01,2013-02-02 08:31:00,
2013-02-02 03:36:00,29.2,19.6,30.38,NE,40,9.0,10.0,67,0.00,,---,0.00,VWS V14.01,2013-02-02 08:36:00,
2013-02-02 03:41:00,29.0,19.1,30.38,NE,36,7.0,10.0,66,0.00,,---,0.00,VWS V14.01,2013-02-02 08:41:00,
2013-02-02 03:46:00,28.7,18.8,30.38,NE,36,7.0,10.0,66,0.00,,---,0.00,VWS V14.01,2013-02-02 08:46:00,
2013-02-02 03:51:00,28.8,18.2,30.38,ENE,64,5.0,10.0,64,0.00,,---,0.00,VWS V14.01,2013-02-02 08:51:00,
2013-02-02 03:56:00,28.9,18.6,30.38,NNE,26,7.0,10.0,65,0.00,,---,0.00,VWS V14.01,2013-02-02 08:56:00,
2013-02-02 04:01:00,28.8,18.9,30.38,NNE,19,6.0,10.0,66,0.00,,---,0.00,VWS V14.01,2013-02-02 09:01:00,
2013-02-02 04:06:00,28.5,18.6,30.39,North,5,6.0,10.0,66,0.00,,---,0.00,VWS V14.01,2013-02-02 09:06:00,
2013-02-02 04:11:00,28.3,18.4,30.39,NNE,20,5.0,10.0,66,0.00,,---,0.00,VWS V14.01,2013-02-02 09:11:00,
2013-02-02 04:16:00,28.3,18.8,30.38,NE,48,7.0,10.0,67,0.00,,---,0.00,VWS V14.01,2013-02-02 09:16:00,
2013-02-02 04:21:00,28.3,18.8,30.38,NNE,27,7.0,11.0,67,0.00,,---,0.00,VWS V14.01,2013-02-02 09:21:00,
2013-02-02 04:26:00,28.2,18.3,30.39,NNE,28,6.0,11.0,66,0.00,,---,0.00,VWS V14.01,2013-02-02 09:26:00,
2013-02-02 04:31:00,28.2,18.7,30.38,NE,45,7.0,11.0,67,0.00,,---,0.00,VWS V14.01,2013-02-02 09:31:00,
2013-02-02 04:36:00,28.1,18.6,30.39,NNE,32,7.0,11.0,67,0.00,,---,0.00,VWS V14.01,2013-02-02 09:36:00,
2013-02-02 04:41:00,28.1,18.6,30.38,NE,34,7.0,11.0,67,0.00,,---,0.00,VWS V14.01,2013-02-02 09:41:00,
2013-02-02 04:46:00,28.1,19.3,30.38,NE,42,7.0,11.0,69,0.00,,---,0.00,VWS V14.01,2013-02-02 09:46:00,
2013-02-02 04:51:00,28.0,18.8,30.38,NE,38,7.0,11.0,68,0.00,,---,0.00,VWS V14.01,2013-02-02 09:51:00,
2013-02-02 04:56:00,28.0,19.2,30.39,NE,46,9.0,11.0,69,0.00,,---,0.00,VWS V14.01,2013-02-02 09:56:00,
2013-02-02 05:01:00,28.0,18.8,30.39,NE,45,5.0,10.0,68,0.00,,---,0.00,VWS V14.01,2013-02-02 10:01:00,
2013-02-02 05:06:00,27.9,19.1,30.38,NE,42,10.0,11.0,69,0.00,,---,0.00,VWS V14.01,2013-02-02 10:06:00,
2013-02-02 05:11:00,28.0,19.2,30.38,NE,43,9.0,11.0,69,0.00,,---,0.00,VWS V14.01,2013-02-02 10:11:00,
2013-02-02 05:16:00,28.0,19.2,30.38,NE,40,7.0,11.0,69,0.00,,---,0.00,VWS V14.01,2013-02-02 10:16:00,
2013-02-02 05:21:00,28.2,19.7,30.38,NE,41,9.0,13.0,70,0.00,,---,0.00,VWS V14.01,2013-02-02 10:21:00,
2013-02-02 05:26:00,28.0,19.2,30.38,NE,40,9.0,13.0,69,0.00,,---,0.00,VWS V14.01,2013-02-02 10:26:00,
2013-02-02 05:31:00,27.8,19.0,30.39,NNE,22,8.0,10.0,69,0.00,,---,0.00,VWS V14.01,2013-02-02 10:31:00,
2013-02-02 05:36:00,27.4,18.6,30.39,NNE,32,7.0,11.0,69,0.00,,---,0.00,VWS V14.01,2013-02-02 10:36:00,
2013-02-02 05:41:00,27.3,18.1,30.39,NNE,17,6.0,11.0,68,0.00,,---,0.00,VWS V14.01,2013-02-02 10:41:00,
2013-02-02 05:46:00,27.2,18.4,30.39,NE,34,5.0,11.0,69,0.00,,---,0.00,VWS V14.01,2013-02-02 10:46:00,
2013-02-02 05:51:00,27.0,18.2,30.39,NNE,32,4.0,11.0,69,0.00,,---,0.00,VWS V14.01,2013-02-02 10:51:00,
2013-02-02 05:56:00,26.9,18.1,30.39,NNE,28,5.0,11.0,69,0.00,,---,0.00,VWS V14.01,2013-02-02 10:56:00,
2013-02-02 06:01:00,27.0,18.5,30.39,NNE,17,4.0,7.0,70,0.00,,---,0.00,VWS V14.01,2013-02-02 11:01:00,
2013-02-02 06:06:00,26.9,17.8,30.39,NNE,19,6.0,7.0,68,0.00,,---,0.00,VWS V14.01,2013-02-02 11:06:00,
2013-02-02 06:11:00,26.9,18.1,30.39,NNE,15,3.0,7.0,69,0.00,,---,0.00,VWS V14.01,2013-02-02 11:11:00,
2013-02-02 06:16:00,26.7,17.6,30.40,NE,49,7.0,7.0,68,0.00,,---,0.00,VWS V14.01,2013-02-02 11:16:00,
2013-02-02 06:21:00,27.0,18.2,30.39,NNE,32,4.0,8.0,69,0.00,,---,0.00,VWS V14.01,2013-02-02 11:21:00,
2013-02-02 06:26:00,27.0,18.2,30.39,NE,49,5.0,8.0,69,0.00,,---,0.00,VWS V14.01,2013-02-02 11:26:00,
2013-02-02 06:31:00,26.9,18.1,30.39,NNE,26,3.0,5.0,69,0.00,,---,0.00,VWS V14.01,2013-02-02 11:31:00,
2013-02-02 06:36:00,26.9,18.4,30.39,NE,38,4.0,5.0,70,0.00,,---,0.00,VWS V14.01,2013-02-02 11:36:00,
2013-02-02 06:41:00,27.1,18.3,30.39,NNE,21,5.0,7.0,69,0.00,,---,0.00,VWS V14.01,2013-02-02 11:41:00,
2013-02-02 06:46:00,27.0,18.5,30.40,North,5,6.0,7.0,70,0.00,,---,0.00,VWS V14.01,2013-02-02 11:46:00,
2013-02-02 06:51:00,26.7,18.2,30.40,North,11,4.0,7.0,70,0.00,,---,0.00,VWS V14.01,2013-02-02 11:51:00,
2013-02-02 06:56:00,26.6,18.5,30.40,North,5,7.0,7.0,71,0.00,,---,0.00,VWS V14.01,2013-02-02 11:56:00,
2013-02-02 07:01:00,26.3,17.9,30.40,North,5,6.0,7.0,70,0.00,,---,0.00,VWS V14.01,2013-02-02 12:01:00,
2013-02-02 07:06:00,26.2,17.8,30.40,North,11,6.0,7.0,70,0.00,,---,0.00,VWS V14.01,2013-02-02 12:06:00,
2013-02-02 07:11:00,26.4,18.6,30.41,NNE,14,5.0,7.0,72,0.00,,---,0.00,VWS V14.01,2013-02-02 12:11:00,
2013-02-02 07:16:00,26.3,18.5,30.41,NNE,26,4.0,7.0,72,0.00,,---,0.00,VWS V14.01,2013-02-02 12:16:00,
2013-02-02 07:21:00,26.5,19.0,30.41,NNE,22,4.0,7.0,73,0.00,,---,0.00,VWS V14.01,2013-02-02 12:21:00,
2013-02-02 07:26:00,26.4,18.6,30.40,NNE,20,3.0,7.0,72,0.00,,---,0.00,VWS V14.01,2013-02-02 12:26:00,
2013-02-02 07:31:00,26.5,18.7,30.41,NNE,14,4.0,6.0,72,0.00,,---,0.00,VWS V14.01,2013-02-02 12:31:00,
2013-02-02 07:36:00,26.9,19.4,30.41,NNE,31,7.0,9.0,73,0.00,,---,0.00,VWS V14.01,2013-02-02 12:36:00,
2013-02-02 07:41:00,27.6,19.8,30.41,NNW,338,6.0,11.0,72,0.00,,---,0.00,VWS V14.01,2013-02-02 12:41:00,
2013-02-02 07:46:00,27.6,18.8,30.41,NNE,27,6.0,11.0,69,0.00,,---,0.00,VWS V14.01,2013-02-02 12:46:00,
2013-02-02 07:51:00,27.5,18.3,30.41,NNE,21,6.0,11.0,68,0.00,,---,0.00,VWS V14.01,2013-02-02 12:51:00,
2013-02-02 07:56:00,27.8,19.3,30.41,NE,46,5.0,11.0,70,0.00,,---,0.00,VWS V14.01,2013-02-02 12:56:00,
2013-02-02 08:01:00,28.2,19.4,30.41,NE,48,6.0,10.0,69,0.00,,---,0.00,VWS V14.01,2013-02-02 13:01:00,
2013-02-02 08:06:00,28.3,18.4,30.41,NNE,17,7.0,10.0,66,0.00,,---,0.00,VWS V14.01,2013-02-02 13:06:00,
2013-02-02 08:11:00,28.4,18.5,30.41,NE,43,6.0,10.0,66,0.00,,---,0.00,VWS V14.01,2013-02-02 13:11:00,
2013-02-02 08:16:00,28.6,18.3,30.42,NNE,28,7.0,10.0,65,0.00,,---,0.00,VWS V14.01,2013-02-02 13:16:00,
2013-02-02 08:21:00,28.9,18.3,30.41,NNE,31,6.0,10.0,64,0.00,,---,0.00,VWS V14.01,2013-02-02 13:21:00,
2013-02-02 08:26:00,29.4,18.7,30.42,NE,51,6.0,10.0,64,0.00,,---,0.00,VWS V14.01,2013-02-02 13:26:00,
2013-02-02 08:31:00,29.7,18.3,30.42,NE,49,5.0,8.0,62,0.00,,---,0.00,VWS V14.01,2013-02-02 13:31:00,
2013-02-02 08:36:00,30.1,19.4,30.41,ENE,63,7.0,9.0,64,0.00,,---,0.00,VWS V14.01,2013-02-02 13:36:00,
2013-02-02 08:41:00,30.4,19.7,30.41,NE,54,8.0,9.0,64,0.00,,---,0.00,VWS V14.01,2013-02-02 13:41:00,
2013-02-02 08:46:00,30.6,19.9,30.41,NE,44,7.0,10.0,64,0.00,,---,0.00,VWS V14.01,2013-02-02 13:46:00,
2013-02-02 08:51:00,31.0,20.6,30.41,NE,47,5.0,10.0,65,0.00,,---,0.00,VWS V14.01,2013-02-02 13:51:00,
2013-02-02 08:56:00,31.1,20.0,30.41,ENE,58,7.0,11.0,63,0.00,,---,0.00,VWS V14.01,2013-02-02 13:56:00,
2013-02-02 09:02:00,31.5,21.5,30.41,NE,51,4.0,11.0,66,0.00,,---,0.00,VWS V14.01,2013-02-02 14:02:00,
2013-02-02 09:07:00,31.6,20.8,30.41,NE,51,5.0,13.0,64,0.00,,---,0.00,VWS V14.01,2013-02-02 14:07:00,
2013-02-02 09:12:00,31.8,21.0,30.41,East,88,6.0,13.0,64,0.00,,---,0.00,VWS V14.01,2013-02-02 14:12:00,
2013-02-02 09:17:00,32.1,20.6,30.41,ENE,67,9.0,13.0,62,0.00,,---,0.00,VWS V14.01,2013-02-02 14:17:00,
2013-02-02 09:21:00,32.2,21.0,30.41,ENE,69,5.0,13.0,63,0.00,,---,0.00,VWS V14.01,2013-02-02 14:21:00,
2013-02-02 09:27:00,32.6,19.9,30.41,ENE,62,9.0,13.0,59,0.00,,---,0.00,VWS V14.01,2013-02-02 14:27:00,
2013-02-02 09:32:00,32.6,18.7,30.41,NE,51,10.0,12.0,56,0.00,,---,0.00,VWS V14.01,2013-02-02 14:32:00,
2013-02-02 09:37:00,32.6,19.1,30.41,NE,49,7.0,12.0,57,0.00,,---,0.00,VWS V14.01,2013-02-02 14:37:00,
2013-02-02 09:42:00,32.8,18.8,30.41,ENE,68,7.0,12.0,56,0.00,,---,0.00,VWS V14.01,2013-02-02 14:42:00,
2013-02-02 09:47:00,33.1,19.9,30.41,NE,51,5.0,12.0,58,0.00,,---,0.00,VWS V14.01,2013-02-02 14:47:00,
2013-02-02 09:52:00,33.4,19.8,30.40,ENE,67,10.0,12.0,57,0.00,,---,0.00,VWS V14.01,2013-02-02 14:52:00,
2013-02-02 09:57:00,33.7,19.7,30.41,ENE,63,4.0,12.0,56,0.00,,---,0.00,VWS V14.01,2013-02-02 14:57:00,
2013-02-02 10:02:00,34.1,20.5,30.41,NE,55,4.0,10.0,57,0.00,,---,0.00,VWS V14.01,2013-02-02 15:02:00,
2013-02-02 10:07:00,34.3,20.2,30.41,ENE,75,5.0,11.0,56,0.00,,---,0.00,VWS V14.01,2013-02-02 15:07:00,
2013-02-02 10:12:00,34.7,20.6,30.41,ESE,103,7.0,11.0,56,0.00,,---,0.00,VWS V14.01,2013-02-02 15:12:00,
2013-02-02 10:17:00,35.0,20.0,30.40,East,100,3.0,11.0,54,0.00,,---,0.00,VWS V14.01,2013-02-02 15:17:00,
2013-02-02 10:22:00,35.2,20.2,30.40,East,99,7.0,11.0,54,0.00,,---,0.00,VWS V14.01,2013-02-02 15:22:00,
2013-02-02 10:27:00,35.5,20.5,30.40,ESE,107,10.0,12.0,54,0.00,,---,0.00,VWS V14.01,2013-02-02 15:27:00,
2013-02-02 10:32:00,36.0,21.0,30.40,ESE,119,2.0,11.0,54,0.00,,---,0.00,VWS V14.01,2013-02-02 15:32:00,
2013-02-02 10:37:00,36.2,21.6,30.40,ESE,104,6.0,11.0,55,0.00,,---,0.00,VWS V14.01,2013-02-02 15:37:00,
2013-02-02 10:43:00,36.4,21.8,30.39,ESE,113,5.0,11.0,55,0.00,,---,0.00,VWS V14.01,2013-02-02 15:43:00,
2013-02-02 10:48:00,36.5,21.9,30.39,ENE,71,6.0,11.0,55,0.00,,---,0.00,VWS V14.01,2013-02-02 15:48:00,
2013-02-02 10:53:00,36.2,22.0,30.39,East,96,2.0,11.0,56,0.00,,---,0.00,VWS V14.01,2013-02-02 15:53:00,
2013-02-02 10:58:00,36.3,23.0,30.39,ESE,117,3.0,11.0,58,0.00,,---,0.00,VWS V14.01,2013-02-02 15:58:00,
2013-02-02 11:03:00,36.4,23.0,30.39,SE,126,3.0,11.0,58,0.00,,---,0.00,VWS V14.01,2013-02-02 16:03:00,
2013-02-02 11:08:00,36.6,24.0,30.38,ESE,112,9.0,11.0,60,0.00,,---,0.00,VWS V14.01,2013-02-02 16:08:00,
2013-02-02 11:13:00,36.9,23.9,30.38,ENE,61,3.0,11.0,59,0.00,,---,0.00,VWS V14.01,2013-02-02 16:13:00,
2013-02-02 11:18:00,36.6,24.0,30.37,ESE,107,4.0,11.0,60,0.00,,---,0.00,VWS V14.01,2013-02-02 16:18:00,
2013-02-02 11:23:00,36.6,24.4,30.37,ESE,116,6.0,11.0,61,0.00,,---,0.00,VWS V14.01,2013-02-02 16:23:00,
2013-02-02 11:28:00,36.9,24.7,30.36,ESE,115,5.0,6.0,61,0.00,,---,0.00,VWS V14.01,2013-02-02 16:28:00,
2013-02-02 11:33:00,37.1,24.9,30.36,ESE,105,9.0,10.0,61,0.00,,---,0.00,VWS V14.01,2013-02-02 16:33:00,
2013-02-02 11:38:00,37.4,25.6,30.36,ESE,109,13.0,13.0,62,0.00,,---,0.00,VWS V14.01,2013-02-02 16:38:00,
2013-02-02 11:43:00,37.6,25.8,30.36,East,85,6.0,13.0,62,0.00,,---,0.00,VWS V14.01,2013-02-02 16:43:00,
2013-02-02 11:48:00,37.4,26.0,30.36,ESE,103,3.0,13.0,63,0.00,,---,0.00,VWS V14.01,2013-02-02 16:48:00,
2013-02-02 11:53:00,37.5,26.8,30.35,ESE,104,12.0,13.0,65,0.00,,---,0.00,VWS V14.01,2013-02-02 16:53:00,
2013-02-02 11:58:00,37.7,26.6,30.35,ESE,112,10.0,10.0,64,0.00,,---,0.00,VWS V14.01,2013-02-02 16:58:00,
2013-02-02 12:03:00,37.8,27.1,30.35,East,88,3.0,10.0,65,0.00,,---,0.00,VWS V14.01,2013-02-02 17:03:00,
2013-02-02 12:08:00,38.0,27.3,30.35,ESE,107,6.0,11.0,65,0.00,,---,0.00,VWS V14.01,2013-02-02 17:08:00,
2013-02-02 12:14:00,38.2,27.5,30.34,NE,52,5.0,11.0,65,0.00,,---,0.00,VWS V14.01,2013-02-02 17:14:00,
2013-02-02 12:19:00,37.9,27.2,30.34,ESE,107,4.0,11.0,65,0.00,,---,0.00,VWS V14.01,2013-02-02 17:19:00,
2013-02-02 12:24:00,37.9,27.9,30.33,ESE,118,4.0,11.0,67,0.00,,---,0.00,VWS V14.01,2013-02-02 17:24:00,
2013-02-02 12:29:00,38.4,28.0,30.33,ESE,117,6.0,10.0,66,0.00,,---,0.00,VWS V14.01,2013-02-02 17:29:00,
2013-02-02 12:34:00,38.5,28.1,30.33,East,98,5.0,10.0,66,0.00,,---,0.00,VWS V14.01,2013-02-02 17:34:00,
2013-02-02 12:39:00,38.8,28.1,30.32,East,90,10.0,11.0,65,0.00,,---,0.00,VWS V14.01,2013-02-02 17:39:00,
2013-02-02 12:44:00,38.9,28.1,30.31,ESE,115,7.0,11.0,65,0.00,,---,0.00,VWS V14.01,2013-02-02 17:44:00,
2013-02-02 12:49:00,39.2,28.8,30.31,ESE,105,9.0,11.0,66,0.00,,---,0.00,VWS V14.01,2013-02-02 17:49:00,
2013-02-02 12:54:00,39.3,28.5,30.30,ESE,115,7.0,11.0,65,0.00,,---,0.00,VWS V14.01,2013-02-02 17:54:00,
2013-02-02 12:59:00,39.4,29.0,30.30,SE,126,3.0,10.0,66,0.00,,---,0.00,VWS V14.01,2013-02-02 17:59:00,
2013-02-02 13:04:00,39.6,29.2,30.29,SE,128,2.0,12.0,66,0.00,,---,0.00,VWS V14.01,2013-02-02 18:04:00,
2013-02-02 13:09:00,40.0,29.6,30.29,ESE,121,6.0,12.0,66,0.00,,---,0.00,VWS V14.01,2013-02-02 18:09:00,
2013-02-02 13:14:00,40.3,29.9,30.29,SE,127,6.0,12.0,66,0.00,,---,0.00,VWS V14.01,2013-02-02 18:14:00,
2013-02-02 13:19:00,40.3,29.5,30.28,SE,133,4.0,12.0,65,0.00,,---,0.00,VWS V14.01,2013-02-02 18:19:00,
2013-02-02 13:24:00,40.6,30.1,30.28,SE,130,6.0,12.0,66,0.00,,---,0.00,VWS V14.01,2013-02-02 18:24:00,
2013-02-02 13:29:00,40.7,30.2,30.28,SE,128,5.0,9.0,66,0.00,,---,0.00,VWS V14.01,2013-02-02 18:29:00,
2013-02-02 13:34:00,41.0,30.9,30.27,ESE,109,4.0,12.0,67,0.00,,---,0.00,VWS V14.01,2013-02-02 18:34:00,
2013-02-02 13:40:00,41.2,31.1,30.27,SE,136,6.0,12.0,67,0.00,,---,0.00,VWS V14.01,2013-02-02 18:40:00,
2013-02-02 13:45:00,41.4,31.3,30.27,SE,133,7.0,12.0,67,0.00,,---,0.00,VWS V14.01,2013-02-02 18:45:00,
2013-02-02 13:50:00,41.7,31.6,30.26,ESE,115,3.0,12.0,67,0.00,,---,0.00,VWS V14.01,2013-02-02 18:50:00,
2013-02-02 13:55:00,41.8,32.0,30.26,SE,139,7.0,13.0,68,0.00,,---,0.00,VWS V14.01,2013-02-02 18:55:00,
2013-02-02 14:00:00,42.2,32.4,30.26,South,185,3.0,10.0,68,0.00,,---,0.00,VWS V14.01,2013-02-02 19:00:00,
2013-02-02 14:05:00,42.6,32.8,30.25,ESE,121,4.0,10.0,68,0.00,,---,0.00,VWS V14.01,2013-02-02 19:05:00,
2013-02-02 14:10:00,42.4,32.6,30.25,SE,139,4.0,10.0,68,0.00,,---,0.00,VWS V14.01,2013-02-02 19:10:00,
2013-02-02 14:15:00,42.6,32.8,30.25,East,101,9.0,10.0,68,0.00,,---,0.00,VWS V14.01,2013-02-02 19:15:00,
2013-02-02 14:20:00,42.4,33.0,30.25,ESE,117,6.0,10.0,69,0.00,,---,0.00,VWS V14.01,2013-02-02 19:20:00,
2013-02-02 14:25:00,42.5,33.1,30.25,SE,124,6.0,10.0,69,0.00,,---,0.00,VWS V14.01,2013-02-02 19:25:00,
2013-02-02 14:30:00,42.6,33.2,30.25,SE,133,4.0,6.0,69,0.00,,---,0.00,VWS V14.01,2013-02-02 19:30:00,
2013-02-02 14:35:00,42.7,33.2,30.24,SE,127,5.0,7.0,69,0.00,,---,0.00,VWS V14.01,2013-02-02 19:35:00,
2013-02-02 14:40:00,42.9,33.4,30.24,ESE,113,2.0,7.0,69,0.00,,---,0.00,VWS V14.01,2013-02-02 19:40:00,
2013-02-02 14:45:00,42.9,33.8,30.23,ESE,119,2.0,7.0,70,0.00,,---,0.00,VWS V14.01,2013-02-02 19:45:00,
2013-02-02 14:50:00,43.3,34.2,30.23,SSE,153,0.0,7.0,70,0.00,,---,0.00,VWS V14.01,2013-02-02 19:50:00,
2013-02-02 14:55:00,44.0,34.9,30.22,SSE,163,3.0,7.0,70,0.00,,---,0.00,VWS V14.01,2013-02-02 19:55:00,
2013-02-02 15:00:00,44.9,35.4,30.22,SSE,160,1.0,6.0,69,0.00,,---,0.00,VWS V14.01,2013-02-02 20:00:00,
2013-02-02 15:05:00,45.8,35.1,30.22,South,175,4.0,9.0,66,0.00,,---,0.00,VWS V14.01,2013-02-02 20:05:00,
2013-02-02 15:10:00,46.3,35.2,30.21,South,171,4.0,9.0,65,0.00,,---,0.00,VWS V14.01,2013-02-02 20:10:00,
2013-02-02 15:15:00,46.7,35.6,30.21,South,183,4.0,9.0,65,0.00,,---,0.00,VWS V14.01,2013-02-02 20:15:00,
2013-02-02 15:20:00,47.0,35.9,30.21,SSE,165,5.0,9.0,65,0.00,,---,0.00,VWS V14.01,2013-02-02 20:20:00,
2013-02-02 15:25:00,47.2,35.3,30.21,SSE,161,2.0,9.0,63,0.00,,---,0.00,VWS V14.01,2013-02-02 20:25:00,
2013-02-02 15:30:00,47.2,35.3,30.21,South,180,3.0,5.0,63,0.00,,---,0.00,VWS V14.01,2013-02-02 20:30:00,
2013-02-02 15:35:00,47.2,35.7,30.21,South,176,2.0,6.0,64,0.00,,---,0.00,VWS V14.01,2013-02-02 20:35:00,
2013-02-02 15:40:00,47.2,35.7,30.21,SE,134,4.0,7.0,64,0.00,,---,0.00,VWS V14.01,2013-02-02 20:40:00,
2013-02-02 15:45:00,46.9,35.4,30.20,SSE,167,0.0,7.0,64,0.00,,---,0.00,VWS V14.01,2013-02-02 20:45:00,
2013-02-02 15:50:00,47.1,35.6,30.20,South,186,4.0,7.0,64,0.00,,---,0.00,VWS V14.01,2013-02-02 20:50:00,
2013-02-02 15:55:00,47.4,36.2,30.20,South,183,1.0,7.0,65,0.00,,---,0.00,VWS V14.01,2013-02-02 20:55:00,
2013-02-02 16:00:00,47.7,36.1,30.20,South,173,2.0,5.0,64,0.00,,---,0.00,VWS V14.01,2013-02-02 21:00:00,
2013-02-02 16:05:00,48.0,36.4,30.20,South,175,3.0,5.0,64,0.00,,---,0.00,VWS V14.01,2013-02-02 21:05:00,
2013-02-02 16:10:00,48.1,36.5,30.19,South,185,5.0,6.0,64,0.00,,---,0.00,VWS V14.01,2013-02-02 21:10:00,
2013-02-02 16:15:00,48.2,37.0,30.19,South,187,4.0,6.0,65,0.00,,---,0.00,VWS V14.01,2013-02-02 21:15:00,
2013-02-02 16:20:00,48.4,36.8,30.19,South,169,2.0,6.0,64,0.00,,---,0.00,VWS V14.01,2013-02-02 21:20:00,
2013-02-02 16:25:00,48.4,36.8,30.18,South,190,3.0,7.0,64,0.00,,---,0.00,VWS V14.01,2013-02-02 21:25:00,
2013-02-02 16:30:00,48.6,36.6,30.18,South,187,6.0,7.0,63,0.00,,---,0.00,VWS V14.01,2013-02-02 21:30:00,
2013-02-02 16:35:00,48.9,37.3,30.18,South,181,6.0,7.0,64,0.00,,---,0.00,VWS V14.01,2013-02-02 21:35:00,
2013-02-02 16:40:00,49.2,38.0,30.18,South,180,4.0,7.0,65,0.00,,---,0.00,VWS V14.01,2013-02-02 21:40:00,
2013-02-02 16:45:00,49.4,38.1,30.18,South,177,4.0,7.0,65,0.00,,---,0.00,VWS V14.01,2013-02-02 21:45:00,
2013-02-02 16:50:00,49.5,38.2,30.18,South,182,4.0,7.0,65,0.00,,---,0.00,VWS V14.01,2013-02-02 21:50:00,
2013-02-02 16:55:00,49.5,38.6,30.17,SSW,203,5.0,9.0,66,0.00,,---,0.00,VWS V14.01,2013-02-02 21:55:00,
2013-02-02 17:00:00,49.6,38.7,30.18,South,183,6.0,7.0,66,0.00,,---,0.00,VWS V14.01,2013-02-02 22:00:00,
2013-02-02 17:06:00,49.6,38.7,30.17,South,191,4.0,7.0,66,0.00,,---,0.00,VWS V14.01,2013-02-02 22:06:00,
2013-02-02 17:11:00,49.7,38.8,30.17,South,187,6.0,7.0,66,0.00,,---,0.00,VWS V14.01,2013-02-02 22:11:00,
2013-02-02 17:16:00,49.6,38.7,30.17,South,180,4.0,7.0,66,0.00,,---,0.00,VWS V14.01,2013-02-02 22:16:00,
2013-02-02 17:21:00,49.4,38.9,30.17,South,180,3.0,7.0,67,0.00,,---,0.00,VWS V14.01,2013-02-02 22:21:00,
2013-02-02 17:26:00,49.2,38.7,30.17,SSW,196,7.0,7.0,67,0.00,,---,0.00,VWS V14.01,2013-02-02 22:26:00,
2013-02-02 17:31:00,48.8,38.3,30.17,South,185,5.0,6.0,67,0.00,,---,0.00,VWS V14.01,2013-02-02 22:31:00,
2013-02-02 17:36:00,48.4,38.7,30.17,South,185,3.0,6.0,69,0.00,,---,0.00,VWS V14.01,2013-02-02 22:36:00,
2013-02-02 17:41:00,48.0,38.3,30.16,South,185,2.0,6.0,69,0.00,,---,0.00,VWS V14.01,2013-02-02 22:41:00,
2013-02-02 17:46:00,47.8,38.5,30.16,South,185,0.0,6.0,70,0.00,,---,0.00,VWS V14.01,2013-02-02 22:46:00,
2013-02-02 17:51:00,47.5,38.6,30.16,South,185,0.0,6.0,71,0.00,,---,0.00,VWS V14.01,2013-02-02 22:51:00,
2013-02-02 17:56:00,47.3,38.4,30.16,South,185,0.0,6.0,71,0.00,,---,0.00,VWS V14.01,2013-02-02 22:56:00,
2013-02-02 18:01:00,47.1,38.5,30.16,South,185,0.0,0.0,72,0.00,,---,0.00,VWS V14.01,2013-02-02 23:01:00,
2013-02-02 18:06:00,47.0,38.8,30.16,South,185,1.0,1.0,73,0.00,,---,0.00,VWS V14.01,2013-02-02 23:06:00,
2013-02-02 18:11:00,46.7,39.2,30.16,South,185,1.0,2.0,75,0.00,,---,0.00,VWS V14.01,2013-02-02 23:11:00,
2013-02-02 18:16:00,46.5,39.4,30.16,South,185,2.0,3.0,76,0.00,,---,0.00,VWS V14.01,2013-02-02 23:16:00,
2013-02-02 18:21:00,46.3,39.5,30.15,WNW,282,3.0,3.0,77,0.00,,---,0.00,VWS V14.01,2013-02-02 23:21:00,
2013-02-02 18:26:00,46.0,39.5,30.15,NW,319,2.0,4.0,78,0.00,,---,0.00,VWS V14.01,2013-02-02 23:26:00,
2013-02-02 18:32:00,45.6,39.2,30.14,NW,319,2.0,3.0,78,0.00,,---,0.00,VWS V14.01,2013-02-02 23:32:00,
2013-02-02 18:37:00,45.2,38.8,30.15,NW,321,3.0,4.0,78,0.00,,---,0.00,VWS V14.01,2013-02-02 23:37:00,
2013-02-02 18:42:00,45.0,38.9,30.15,NW,321,2.0,4.0,79,0.00,,---,0.00,VWS V14.01,2013-02-02 23:42:00,
2013-02-02 18:47:00,44.7,38.6,30.15,NW,321,2.0,4.0,79,0.00,,---,0.00,VWS V14.01,2013-02-02 23:47:00,
2013-02-02 18:52:00,44.4,38.6,30.14,NW,321,0.0,4.0,80,0.00,,---,0.00,VWS V14.01,2013-02-02 23:52:00,
2013-02-02 18:57:00,44.2,38.4,30.14,NW,321,1.0,4.0,80,0.00,,---,0.00,VWS V14.01,2013-02-02 23:57:00,
2013-02-02 19:02:00,44.0,38.2,30.14,NW,321,1.0,3.0,80,0.00,,---,0.00,VWS V14.01,2013-02-03 00:02:00,
2013-02-02 19:07:00,43.9,38.1,30.14,NW,321,1.0,3.0,80,0.00,,---,0.00,VWS V14.01,2013-02-03 00:07:00,
2013-02-02 19:12:00,43.8,38.4,30.14,NW,321,2.0,3.0,81,0.00,,---,0.00,VWS V14.01,2013-02-03 00:12:00,
2013-02-02 19:17:00,43.7,38.3,30.14,NW,321,2.0,3.0,81,0.00,,---,0.00,VWS V14.01,2013-02-03 00:17:00,
2013-02-02 19:22:00,43.6,38.2,30.13,NW,321,2.0,3.0,81,0.00,,---,0.00,VWS V14.01,2013-02-03 00:22:00,
2013-02-02 19:27:00,43.6,38.2,30.13,NW,321,2.0,4.0,81,0.00,,---,0.00,VWS V14.01,2013-02-03 00:27:00,
2013-02-02 19:32:00,43.4,38.0,30.13,NW,321,0.0,3.0,81,0.00,,---,0.00,VWS V14.01,2013-02-03 00:32:00,
2013-02-02 19:37:00,43.2,38.1,30.13,NNW,337,3.0,3.0,82,0.00,,---,0.00,VWS V14.01,2013-02-03 00:37:00,
2013-02-02 19:42:00,43.1,38.0,30.13,NNW,339,3.0,5.0,82,0.00,,---,0.00,VWS V14.01,2013-02-03 00:42:00,
2013-02-02 19:47:00,43.0,38.2,30.13,NNW,329,0.0,5.0,83,0.00,,---,0.00,VWS V14.01,2013-02-03 00:47:00,
2013-02-02 19:52:00,42.9,38.1,30.12,NNW,329,1.0,5.0,83,0.00,,---,0.00,VWS V14.01,2013-02-03 00:52:00,
2013-02-02 19:57:00,42.8,37.7,30.12,NNW,329,0.0,5.0,82,0.00,,---,0.00,VWS V14.01,2013-02-03 00:57:00,
2013-02-02 20:02:00,42.8,37.7,30.12,NNW,329,2.0,3.0,82,0.00,,---,0.00,VWS V14.01,2013-02-03 01:02:00,
2013-02-02 20:07:00,42.8,37.7,30.12,NNW,329,1.0,3.0,82,0.00,,---,0.00,VWS V14.01,2013-02-03 01:07:00,
2013-02-02 20:12:00,42.8,37.7,30.11,NNW,329,1.0,3.0,82,0.00,,---,0.00,VWS V14.01,2013-02-03 01:12:00,
2013-02-02 20:17:00,42.8,37.7,30.11,NNW,329,0.0,3.0,82,0.00,,---,0.00,VWS V14.01,2013-02-03 01:17:00,
2013-02-02 20:22:00,42.9,37.5,30.10,West,264,2.0,3.0,81,0.00,,---,0.00,VWS V14.01,2013-02-03 01:22:00,
2013-02-02 20:27:00,42.8,37.4,30.10,WSW,239,2.0,3.0,81,0.00,,---,0.00,VWS V14.01,2013-02-03 01:27:00,
2013-02-02 20:32:00,42.9,37.5,30.10,SW,236,2.0,4.0,81,0.00,,---,0.00,VWS V14.01,2013-02-03 01:32:00,
2013-02-02 20:37:00,43.1,37.7,30.10,SW,236,1.0,4.0,81,0.00,,---,0.00,VWS V14.01,2013-02-03 01:37:00,
2013-02-02 20:42:00,43.2,37.8,30.09,SW,236,3.0,4.0,81,0.00,,---,0.00,VWS V14.01,2013-02-03 01:42:00,
2013-02-02 20:47:00,43.3,37.9,30.09,SSW,213,2.0,4.0,81,0.00,,---,0.00,VWS V14.01,2013-02-03 01:47:00,
2013-02-02 20:52:00,43.7,38.9,30.08,SSW,213,2.0,4.0,83,0.00,,---,0.00,VWS V14.01,2013-02-03 01:52:00,
2013-02-02 20:57:00,44.3,39.5,30.08,SSW,213,2.0,4.0,83,0.00,,---,0.00,VWS V14.01,2013-02-03 01:57:00,
2013-02-02 21:02:00,44.5,39.7,30.08,SSW,213,0.0,2.0,83,0.00,,---,0.00,VWS V14.01,2013-02-03 02:02:00,
2013-02-02 21:08:00,44.6,39.8,30.08,SSW,213,1.0,3.0,83,0.00,,---,0.00,VWS V14.01,2013-02-03 02:08:00,
2013-02-02 21:13:00,44.6,39.8,30.08,SSW,213,3.0,3.0,83,0.00,,---,0.00,VWS V14.01,2013-02-03 02:13:00,
2013-02-02 21:18:00,44.6,39.8,30.08,SSW,213,2.0,3.0,83,0.00,,---,0.00,VWS V14.01,2013-02-03 02:18:00,
2013-02-02 21:23:00,44.6,40.1,30.07,WSW,237,1.0,3.0,84,0.00,,---,0.00,VWS V14.01,2013-02-03 02:23:00,
2013-02-02 21:28:00,44.5,40.0,30.07,WSW,237,2.0,3.0,84,0.00,,---,0.00,VWS V14.01,2013-02-03 02:28:00,
2013-02-02 21:33:00,44.5,40.0,30.07,SW,232,2.0,4.0,84,0.00,,---,0.00,VWS V14.01,2013-02-03 02:33:00,
2013-02-02 21:38:00,44.7,40.5,30.07,SW,234,1.0,4.0,85,0.00,,---,0.00,VWS V14.01,2013-02-03 02:38:00,
2013-02-02 21:43:00,44.9,40.7,30.07,SW,232,2.0,4.0,85,0.00,,---,0.00,VWS V14.01,2013-02-03 02:43:00,
2013-02-02 21:48:00,45.2,41.0,30.06,WSW,237,2.0,4.0,85,0.00,,---,0.00,VWS V14.01,2013-02-03 02:48:00,
2013-02-02 21:53:00,45.5,41.6,30.06,SW,223,3.0,5.0,86,0.00,,---,0.00,VWS V14.01,2013-02-03 02:53:00,
2013-02-02 21:58:00,45.9,42.0,30.06,SW,223,5.0,5.0,86,0.00,,---,0.00,VWS V14.01,2013-02-03 02:58:00,
2013-02-02 22:03:00,46.3,42.3,30.06,SW,225,4.0,8.0,86,0.00,,---,0.00,VWS V14.01,2013-02-03 03:03:00,
2013-02-02 22:08:00,46.7,42.7,30.06,SW,226,6.0,9.0,86,0.00,,---,0.00,VWS V14.01,2013-02-03 03:08:00,
2013-02-02 22:13:00,47.2,43.2,30.06,SW,230,6.0,9.0,86,0.00,,---,0.00,VWS V14.01,2013-02-03 03:13:00,
2013-02-02 22:18:00,47.6,43.6,30.06,SW,232,6.0,10.0,86,0.00,,---,0.00,VWS V14.01,2013-02-03 03:18:00,
2013-02-02 22:23:00,47.9,43.6,30.06,West,260,4.0,10.0,85,0.00,,---,0.00,VWS V14.01,2013-02-03 03:23:00,
2013-02-02 22:28:00,48.1,43.8,30.06,WSW,245,5.0,7.0,85,0.00,,---,0.00,VWS V14.01,2013-02-03 03:28:00,
2013-02-02 22:33:00,48.1,43.8,30.06,West,269,1.0,7.0,85,0.00,,---,0.00,VWS V14.01,2013-02-03 03:33:00,
2013-02-02 22:38:00,47.7,43.7,30.06,West,262,4.0,7.0,86,0.00,,---,0.00,VWS V14.01,2013-02-03 03:38:00,
2013-02-02 22:43:00,47.7,43.7,30.06,WSW,244,6.0,10.0,86,0.00,,---,0.00,VWS V14.01,2013-02-03 03:43:00,
2013-02-02 22:48:00,47.7,43.7,30.06,West,270,6.0,10.0,86,0.00,,---,0.00,VWS V14.01,2013-02-03 03:48:00,
2013-02-02 22:53:00,47.4,43.4,30.06,West,275,8.0,10.0,86,0.00,,---,0.00,VWS V14.01,2013-02-03 03:53:00,
2013-02-02 22:58:00,47.2,43.2,30.06,West,272,7.0,9.0,86,0.00,,---,0.00,VWS V14.01,2013-02-03 03:58:00,
2013-02-02 23:04:00,47.3,43.3,30.05,West,259,6.0,10.0,86,0.00,,---,0.00,VWS V14.01,2013-02-03 04:04:00,
2013-02-02 23:09:00,47.2,42.9,30.05,West,269,4.0,11.0,85,0.00,,---,0.00,VWS V14.01,2013-02-03 04:09:00,
2013-02-02 23:14:00,47.5,43.2,30.05,West,266,6.0,11.0,85,0.00,,---,0.00,VWS V14.01,2013-02-03 04:14:00,
2013-02-02 23:19:00,48.1,43.5,30.05,West,269,12.0,12.0,84,0.00,,---,0.00,VWS V14.01,2013-02-03 04:19:00,
2013-02-02 23:24:00,48.1,42.9,30.05,WSW,243,8.0,12.0,82,0.00,,---,0.00,VWS V14.01,2013-02-03 04:24:00,
2013-02-02 23:29:00,48.1,42.5,30.05,West,263,9.0,13.0,81,0.00,,---,0.00,VWS V14.01,2013-02-03 04:29:00,
2013-02-02 23:34:00,48.5,42.6,30.05,WSW,249,8.0,15.0,80,0.00,,---,0.00,VWS V14.01,2013-02-03 04:34:00,
2013-02-02 23:39:00,48.9,43.3,30.04,West,261,10.0,15.0,81,0.00,,---,0.00,VWS V14.01,2013-02-03 04:39:00,
2013-02-02 23:44:00,49.3,43.4,30.04,West,267,10.0,15.0,80,0.00,,---,0.00,VWS V14.01,2013-02-03 04:44:00,
2013-02-02 23:49:00,49.6,43.7,30.04,West,270,11.0,15.0,80,0.00,,---,0.00,VWS V14.01,2013-02-03 04:49:00,
2013-02-02 23:54:00,49.8,43.6,30.04,West,273,16.0,17.0,79,0.00,,---,0.00,VWS V14.01,2013-02-03 04:54:00,
2013-02-02 23:59:00,50.0,43.4,30.04,West,278,15.0,15.0,78,0.00,,---,0.00,VWS V14.01,2013-02-03 04:59:00,